Terminal Aerodrome Forecast
Issued by NWS

Home | Current Version | Previous Version | Graphics & Text | Print | Product List | Glossary On
Versions: 1 2 3 4 5 6 7 8 9 10 11 12 13 14 15 16 17 18 19 20 21 22 23
000
FTUS42 KMHX 032134 AAC
TAFPGV
TAF AMD
KPGV 032134Z 0322/0418 13005KT P6SM VCSH OVC020
     FM040000 15008KT 4SM BR VCSH OVC007 WS020/22035KT
     FM040400 22010KT 3SM BR OVC004
     FM041500 23011G18KT P6SM OVC010
      AMD LTD TO CLD VIS AND WIND=

USA.gov is the U.S. government's official web portal to all federal, state and local government web resources and services.